Terminal Aerodrome Forecast
Issued by NWS

Home | Current Version | Previous Version | Text Only | Print | Product List | Glossary On
Versions: 1 2 3 4 5 6 7 8 9 10 11 12 13 14
000
FTUS44 KJAN 011700
TAFHKS
TAF
KHKS 011737Z 0118/0218 13005KT 2SM RA BKN007 OVC013
     FM011930 14006KT 4SM -SHRA BKN007 OVC015
     FM020000 10004KT 2SM RA OVC004
     FM020500 VRB04KT 3SM BR VCSH OVC003
     FM021300 01007KT 3SM -RA OVC003=

USA.gov is the U.S. government's official web portal to all federal, state and local government web resources and services.